< Cyclone 199809 1999 Season Cyclone 199902 >
Cyclone 199901 (ZELIA)
General InformationTrack Information on Google MapsDetailed Wind InformationList of All Images || ResourceGoogle EarthGE AnimationAtom FeedGeoJSON
Detalied Best Track (Time Zone = UTC)
Year Month Day Hour Lat. Long. Pressure (hPa) Wind (kt) Class Image Chart
1998 10 7 06 -11.2 93.0 1002 23 2 Image --
1998 10 7 09 -11.8 93.6 1000 27 2 Image --
1998 10 7 12 -12.3 93.8 999 29 2 Image --
1998 10 7 15 -12.8 94.0 998 29 2 Image --
1998 10 7 18 -13.1 94.0 996 33 2 Image --
1998 10 7 21 -13.4 94.1 995 35 3 Image --
1998 10 8 00 -13.8 94.2 994 35 3 Image --
1998 10 8 03 -14.1 94.4 993 37 3 Image --
1998 10 8 06 -14.3 94.6 992 39 3 Image --
1998 10 8 09 -14.5 94.8 990 41 3 Image --
1998 10 8 12 -14.6 95.0 990 41 3 Image --
1998 10 8 15 -14.7 95.1 990 41 3 Image --
1998 10 8 18 -14.8 95.2 992 39 3 Image --
1998 10 8 21 -14.8 95.3 992 39 3 Image --
1998 10 9 00 -14.7 95.4 994 35 3 Image --
1998 10 9 03 -14.6 95.5 996 33 2 Image --
1998 10 9 06 -14.5 95.6 998 29 2 Image --
1998 10 9 09 -14.4 95.8 999 29 2 Image --
1998 10 9 12 -14.4 96.0 1000 27 2 Image --
1998 10 9 15 -14.4 96.3 1001 25 2 Image --
1998 10 9 18 -14.4 96.5 1001 25 2 Image --
1998 10 9 21 -14.4 96.5 1002 23 2 Image --
1998 10 10 00 -14.3 96.2 1002 23 2 Image --
1998 10 10 03 -14.1 95.8 1003 23 2 Image --
1998 10 10 06 -13.9 95.5 1004 21 2 Image --
1998 10 10 09 -13.8 95.3 1005 19 2 Image --
< Cyclone 199809 1999 Season Cyclone 199902 >

Help